Time;durP1;ratioP1;P1;durP2;ratioP2;P2;SDS_P1;SDS_P2;PMS_P1;PMS_P2;Temp;Humidity;BMP_temperature;BMP_pressure;BME280_temperature;BME280_humidity;BME280_pressure;Samples;Min_cycle;Max_cycle;Signal;HPM_P1;HPM_P2
2022/02/15 00:00:00;;;;;;;8.93;4.20;;;6.70;1.00;;;;;;5077037;28;20472;-55
2022/02/15 00:02:28;;;;;;;8.60;4.03;;;6.70;1.00;;;;;;5077167;28;20461;-55
2022/02/15 00:04:55;;;;;;;6.07;4.40;;;6.80;1.00;;;;;;5077352;28;20483;-51
2022/02/15 00:07:23;;;;;;;8.20;4.37;;;6.80;1.00;;;;;;5076150;28;20945;-53
2022/02/15 00:09:53;;;;;;;9.37;4.30;;;6.80;1.00;;;;;;5076910;28;20548;-55
2022/02/15 00:12:20;;;;;;;9.77;4.07;;;6.80;1.00;;;;;;5057304;28;20565;-57
2022/02/15 00:14:47;;;;;;;9.27;4.63;;;6.80;1.00;;;;;;5057374;28;20462;-57
2022/02/15 00:17:14;;;;;;;6.77;2.93;;;6.80;1.00;;;;;;5057165;28;20528;-52
2022/02/15 00:19:41;;;;;;;10.20;4.10;;;6.70;1.00;;;;;;5056874;28;20466;-54
2022/02/15 00:22:08;;;;;;;11.40;3.93;;;6.80;1.00;;;;;;5071617;28;20496;-54
2022/02/15 00:24:37;;;;;;;8.13;4.00;;;6.80;1.00;;;;;;5077175;28;20519;-56
2022/02/15 00:27:04;;;;;;;11.73;3.50;;;6.70;1.00;;;;;;5076805;28;20465;-52
2022/02/15 00:29:31;;;;;;;10.63;4.67;;;6.70;1.00;;;;;;5077214;28;20873;-52
2022/02/15 00:31:58;;;;;;;10.90;4.90;;;6.80;1.00;;;;;;5076951;28;20470;-56
2022/02/15 00:34:25;;;;;;;8.10;4.50;;;6.80;1.00;;;;;;5077050;28;20774;-53
2022/02/15 00:36:52;;;;;;;16.97;4.87;;;6.80;1.00;;;;;;5076839;28;20465;-55
2022/02/15 00:39:19;;;;;;;6.30;3.77;;;6.80;1.00;;;;;;5077146;28;20509;-52
2022/02/15 00:41:48;;;;;;;6.57;4.20;;;6.80;1.00;;;;;;5076296;28;20469;-57
2022/02/15 00:44:15;;;;;;;10.80;4.07;;;6.80;1.00;;;;;;5077134;28;20944;-56
2022/02/15 00:46:42;;;;;;;6.73;4.20;;;6.80;1.00;;;;;;5076739;28;20461;-53
2022/02/15 00:49:09;;;;;;;8.60;4.30;;;6.80;1.00;;;;;;5077344;28;20497;-53
2022/02/15 00:51:36;;;;;;;8.67;4.40;;;6.90;1.00;;;;;;5076485;28;20468;-56
2022/02/15 00:54:03;;;;;;;8.30;3.97;;;6.90;1.00;;;;;;5076810;28;20465;-54
2022/02/15 00:56:30;;;;;;;10.13;4.03;;;6.80;1.00;;;;;;5078110;28;20465;-54
2022/02/15 00:58:58;;;;;;;12.53;4.30;;;6.90;1.00;;;;;;5081200;28;20468;-57
2022/02/15 01:01:25;;;;;;;9.60;3.50;;;6.90;1.00;;;;;;5080884;28;20465;-56
2022/02/15 01:03:52;;;;;;;9.33;4.27;;;6.90;1.00;;;;;;5081024;28;20536;-57
2022/02/15 01:06:20;;;;;;;12.90;3.93;;;6.90;1.00;;;;;;5081103;28;20468;-50
2022/02/15 01:08:47;;;;;;;10.20;3.60;;;6.80;1.00;;;;;;5079866;28;20485;-52
2022/02/15 01:11:14;;;;;;;7.17;4.03;;;6.80;1.00;;;;;;5081100;28;20890;-55
2022/02/15 01:13:41;;;;;;;6.30;4.37;;;6.80;1.00;;;;;;5080684;28;20826;-55
2022/02/15 01:16:10;;;;;;;8.60;4.70;;;6.70;1.00;;;;;;5080810;28;20594;-52
2022/02/15 01:18:37;;;;;;;10.73;4.10;;;6.70;1.00;;;;;;5080112;28;20526;-52
2022/02/15 01:21:04;;;;;;;7.13;3.87;;;6.70;6.10;;;;;;5080760;28;20558;-56
2022/02/15 01:23:32;;;;;;;10.00;4.10;;;6.60;20.00;;;;;;5080345;28;20511;-53
2022/02/15 01:25:59;;;;;;;6.80;3.80;;;6.70;29.30;;;;;;5080328;28;20473;-52
2022/02/15 01:28:26;;;;;;;8.03;4.57;;;6.70;21.20;;;;;;5079893;28;20983;-55
2022/02/15 01:30:53;;;;;;;8.30;4.47;;;6.70;17.50;;;;;;5080744;28;20468;-52
2022/02/15 01:33:21;;;;;;;10.73;4.80;;;6.70;8.50;;;;;;5080137;28;20461;-57
2022/02/15 01:35:51;;;;;;;5.70;3.83;;;6.70;12.50;;;;;;5086823;28;20890;-55
2022/02/15 01:38:18;;;;;;;8.47;3.87;;;6.70;15.30;;;;;;5095772;28;20515;-56
2022/02/15 01:40:45;;;;;;;7.83;4.13;;;6.70;27.70;;;;;;5080656;28;20861;-56
2022/02/15 01:43:12;;;;;;;9.30;4.50;;;6.70;31.50;;;;;;5080108;28;20461;-55
2022/02/15 01:45:39;;;;;;;10.83;3.80;;;6.70;27.70;;;;;;5079870;28;20468;-54
2022/02/15 01:48:08;;;;;;;12.27;4.87;;;6.70;22.40;;;;;;5079912;28;20495;-56
2022/02/15 01:50:37;;;;;;;6.23;4.63;;;6.70;20.40;;;;;;5079299;28;20500;-56
2022/02/15 01:53:04;;;;;;;7.50;3.97;;;6.70;26.10;;;;;;5080025;28;20898;-53
2022/02/15 01:55:31;;;;;;;10.70;4.57;;;6.70;34.10;;;;;;5079538;28;20453;-56
2022/02/15 01:57:58;;;;;;;8.80;4.23;;;6.70;37.20;;;;;;5079634;28;20477;-55
2022/02/15 02:00:25;;;;;;;13.23;6.07;;;6.70;52.80;;;;;;5079235;28;20461;-51
2022/02/15 02:02:53;;;;;;;6.97;5.27;;;6.70;60.80;;;;;;5080091;28;20511;-52
2022/02/15 02:08:06;;;;;;;7.63;4.50;;;6.80;68.20;;;;;;5079156;28;20480;-53
2022/02/15 02:10:33;;;;;;;9.27;4.60;;;6.70;51.90;;;;;;5078043;28;20466;-55
2022/02/15 02:13:02;;;;;;;7.50;4.30;;;6.80;51.40;;;;;;5079896;28;20895;-55
2022/02/15 02:15:29;;;;;;;14.53;4.90;;;6.80;44.00;;;;;;5079867;28;20523;-52
2022/02/15 02:17:58;;;;;;;9.30;5.67;;;6.80;46.70;;;;;;5079580;28;20493;-53
2022/02/15 02:20:26;;;;;;;8.93;4.97;;;6.70;58.80;;;;;;5079173;28;20476;-55
2022/02/15 02:22:54;;;;;;;7.57;4.70;;;6.70;88.70;;;;;;5079236;28;20828;-57
2022/02/15 02:25:22;;;;;;;8.77;4.87;;;6.70;99.90;;;;;;5078667;28;20461;-54
2022/02/15 02:27:51;;;;;;;13.03;4.93;;;6.70;99.90;;;;;;5079279;28;20878;-55
2022/02/15 02:30:18;;;;;;;8.53;4.90;;;6.70;99.90;;;;;;5079738;28;20553;-58
2022/02/15 02:32:46;;;;;;;9.50;4.80;;;6.60;99.90;;;;;;5078737;28;20531;-58
2022/02/15 02:35:13;;;;;;;12.93;5.93;;;6.70;99.90;;;;;;5079217;28;20883;-57
2022/02/15 02:37:40;;;;;;;10.83;4.70;;;6.70;99.90;;;;;;5079104;28;20473;-56
2022/02/15 02:40:11;;;;;;;10.10;5.20;;;6.70;99.90;;;;;;5078969;28;20898;-53
2022/02/15 02:42:38;;;;;;;4.80;4.10;;;6.70;99.90;;;;;;5078110;28;20825;-56
2022/02/15 02:45:08;;;;;;;9.10;5.37;;;6.70;99.90;;;;;;5079156;28;20798;-57
2022/02/15 02:47:36;;;;;;;11.43;5.10;;;6.70;99.90;;;;;;5077967;28;20461;-55
2022/02/15 02:50:04;;;;;;;10.70;5.17;;;6.60;99.90;;;;;;5078893;28;21026;-54
2022/02/15 02:52:31;;;;;;;7.67;5.90;;;6.60;99.90;;;;;;5078484;28;20464;-57
2022/02/15 02:54:58;;;;;;;14.17;6.27;;;6.60;99.90;;;;;;5078951;28;20469;-50
2022/02/15 02:57:27;;;;;;;8.57;5.80;;;6.60;99.90;;;;;;5078380;28;20934;-56
2022/02/15 02:59:54;;;;;;;10.90;5.70;;;6.60;99.90;;;;;;5075345;28;20469;-57
2022/02/15 03:02:21;;;;;;;10.23;6.20;;;6.60;99.90;;;;;;5075618;28;20488;-56
2022/02/15 03:04:48;;;;;;;8.70;5.70;;;6.60;99.90;;;;;;5076234;28;20515;-56
2022/02/15 03:07:15;;;;;;;13.93;6.00;;;6.60;99.90;;;;;;5077288;28;20462;-52
2022/02/15 03:09:42;;;;;;;8.77;5.87;;;6.60;99.90;;;;;;5072984;28;20556;-57
2022/02/15 03:12:12;;;;;;;8.30;5.40;;;6.50;99.90;;;;;;5073778;28;20792;-50
2022/02/15 03:14:41;;;;;;;11.13;5.70;;;6.50;99.90;;;;;;5074644;28;20479;-57
2022/02/15 03:17:12;;;;;;;8.47;6.23;;;6.50;99.90;;;;;;5075387;28;20427;-50
2022/02/15 03:19:39;;;;;;;11.47;5.80;;;6.50;99.90;;;;;;5076497;28;20457;-50
2022/02/15 03:22:07;;;;;;;12.03;6.43;;;6.50;99.90;;;;;;5070770;28;20457;-53
2022/02/15 03:24:34;;;;;;;14.13;6.07;;;6.50;99.90;;;;;;5074139;28;20752;-57
2022/02/15 03:27:01;;;;;;;13.00;7.00;;;6.50;99.90;;;;;;5077065;28;20485;-54
2022/02/15 03:29:28;;;;;;;14.97;6.70;;;6.50;99.90;;;;;;5077777;28;20482;-56
2022/02/15 03:31:58;;;;;;;12.50;7.73;;;6.60;99.90;;;;;;5077278;28;20461;-54
2022/02/15 03:34:25;;;;;;;9.23;7.40;;;6.60;99.90;;;;;;5074390;28;20466;-55
2022/02/15 03:36:52;;;;;;;16.63;6.50;;;6.60;99.90;;;;;;5080502;28;20458;-56
2022/02/15 03:39:19;;;;;;;11.10;6.87;;;6.50;99.90;;;;;;5075591;28;20524;-54
2022/02/15 03:44:31;;;;;;;13.87;7.80;;;6.50;99.90;;;;;;5073552;28;20459;-53
2022/02/15 03:46:59;;;;;;;15.47;7.77;;;6.50;99.90;;;;;;5077490;28;20453;-56
2022/02/15 03:49:26;;;;;;;14.03;8.10;;;6.50;99.90;;;;;;5074745;28;20481;-57
2022/02/15 03:51:53;;;;;;;11.47;8.30;;;6.40;99.90;;;;;;5076745;28;20461;-55
2022/02/15 03:54:21;;;;;;;10.70;8.27;;;6.40;99.90;;;;;;5077140;28;20435;-52
2022/02/15 03:56:48;;;;;;;12.07;8.77;;;6.40;99.90;;;;;;5076497;28;20461;-55
2022/02/15 03:59:16;;;;;;;14.23;8.73;;;6.40;99.90;;;;;;5076733;28;20495;-50
2022/02/15 04:01:43;;;;;;;11.23;9.27;;;6.50;99.90;;;;;;5074365;28;20457;-53
2022/02/15 04:04:11;;;;;;;17.77;10.13;;;6.50;99.90;;;;;;5074269;28;20476;-54
2022/02/15 04:06:39;;;;;;;16.10;9.80;;;6.50;99.90;;;;;;5073037;28;20494;-50
2022/02/15 04:09:06;;;;;;;16.40;10.60;;;6.50;99.90;;;;;;5074264;28;20481;-55
2022/02/15 04:11:33;;;;;;;17.27;9.60;;;6.40;99.90;;;;;;5076052;28;20448;-55
2022/02/15 04:14:03;;;;;;;15.47;10.97;;;6.50;99.90;;;;;;5076051;28;20457;-57
2022/02/15 04:16:30;;;;;;;17.83;12.97;;;6.40;99.90;;;;;;5074172;28;20519;-53
2022/02/15 04:18:57;;;;;;;16.50;10.93;;;6.40;99.90;;;;;;5076764;28;20453;-52
2022/02/15 04:21:25;;;;;;;15.97;11.03;;;6.40;99.90;;;;;;5076474;28;20461;-55
2022/02/15 04:23:52;;;;;;;17.77;11.30;;;6.40;99.90;;;;;;5076134;28;20457;-53
2022/02/15 04:26:21;;;;;;;18.93;11.93;;;6.30;99.90;;;;;;5076269;28;20453;-54
2022/02/15 04:28:48;;;;;;;17.53;11.60;;;6.30;1.00;;;;;;5076572;28;20481;-56
2022/02/15 04:31:15;;;;;;;16.80;12.37;;;6.30;1.00;;;;;;5075236;28;20578;-53
2022/02/15 04:33:42;;;;;;;15.87;10.90;;;6.30;1.00;;;;;;5076116;28;20469;-56
2022/02/15 04:36:09;;;;;;;14.17;11.30;;;6.20;1.00;;;;;;5072263;28;20501;-52
2022/02/15 04:38:38;;;;;;;17.07;12.63;;;6.20;1.00;;;;;;5075783;28;20510;-53
2022/02/15 04:41:05;;;;;;;14.40;11.50;;;6.20;1.00;;;;;;5076320;28;20461;-53
2022/02/15 04:43:33;;;;;;;17.00;11.77;;;6.20;1.00;;;;;;5074143;28;20952;-54
2022/02/15 04:46:00;;;;;;;16.60;10.83;;;6.20;1.00;;;;;;5076186;28;20493;-57
2022/02/15 04:48:27;;;;;;;18.00;10.83;;;6.20;1.00;;;;;;5075786;28;20455;-54
2022/02/15 04:50:54;;;;;;;15.03;11.10;;;6.10;1.00;;;;;;5076622;28;20889;-53
2022/02/15 04:53:23;;;;;;;18.00;10.77;;;6.10;1.00;;;;;;5076150;28;20458;-56
2022/02/15 04:55:52;;;;;;;12.00;9.97;;;6.10;1.00;;;;;;5073275;28;20488;-54
2022/02/15 04:58:19;;;;;;;18.20;10.43;;;6.00;1.00;;;;;;5075065;28;20508;-56
2022/02/15 05:00:48;;;;;;;18.00;10.33;;;6.00;1.00;;;;;;5076302;28;20454;-56
2022/02/15 05:03:15;;;;;;;13.73;10.17;;;6.00;1.00;;;;;;5076052;28;20504;-56
2022/02/15 05:05:42;;;;;;;14.20;11.07;;;5.90;1.00;;;;;;5075471;28;20891;-57
2022/02/15 05:08:09;;;;;;;16.17;10.20;;;5.90;1.00;;;;;;5074133;28;20457;-55
2022/02/15 05:10:37;;;;;;;14.50;11.00;;;5.90;1.00;;;;;;5075061;28;20512;-54
2022/02/15 05:13:08;;;;;;;18.27;10.47;;;5.90;1.00;;;;;;5071930;28;20470;-54
2022/02/15 05:15:36;;;;;;;17.10;9.67;;;5.90;1.00;;;;;;5072978;28;20461;-54
2022/02/15 05:18:07;;;;;;;18.50;10.40;;;5.90;1.00;;;;;;5071628;28;20612;-57
2022/02/15 05:20:34;;;;;;;12.30;9.67;;;5.90;26.40;;;;;;5074831;28;20454;-55
2022/02/15 05:23:04;;;;;;;14.67;10.83;;;5.90;59.90;;;;;;5074111;28;20457;-57
2022/02/15 05:25:31;;;;;;;18.83;10.50;;;6.00;86.50;;;;;;5074614;28;20967;-55
2022/02/15 05:27:58;;;;;;;14.57;10.60;;;6.00;50.20;;;;;;5074250;28;20456;-53
2022/02/15 05:30:29;;;;;;;16.50;11.17;;;6.00;39.60;;;;;;5072042;28;21011;-55
2022/02/15 05:32:56;;;;;;;18.03;11.53;;;6.10;16.60;;;;;;5074710;28;20515;-54
2022/02/15 05:35:24;;;;;;;15.93;10.90;;;6.10;1.10;;;;;;5074382;28;20902;-51
2022/02/15 05:37:51;;;;;;;17.10;10.70;;;6.10;6.30;;;;;;5074526;28;20874;-53
2022/02/15 05:40:19;;;;;;;19.03;11.43;;;6.10;18.50;;;;;;5069386;28;20530;-55
2022/02/15 05:42:46;;;;;;;15.70;11.00;;;6.10;1.00;;;;;;5075456;28;20461;-52
2022/02/15 05:45:14;;;;;;;16.77;11.70;;;6.10;43.70;;;;;;5078157;28;20522;-51
2022/02/15 05:47:42;;;;;;;14.73;11.57;;;6.10;12.70;;;;;;5078405;28;20828;-52
2022/02/15 05:52:51;;;;;;;22.23;12.40;;;6.10;99.90;;;;;;5057546;28;20507;-56
2022/02/15 05:55:18;;;;;;;18.00;11.27;;;6.00;99.90;;;;;;5077189;28;20464;-55
2022/02/15 05:57:45;;;;;;;17.80;12.00;;;6.00;99.90;;;;;;5074107;28;20482;-54
2022/02/15 06:00:14;;;;;;;17.97;13.50;;;6.00;99.90;;;;;;5076785;28;20509;-52
2022/02/15 06:02:46;;;;;;;15.27;12.03;;;6.00;99.90;;;;;;5077395;28;20544;-54
2022/02/15 06:05:13;;;;;;;22.37;11.83;;;6.00;99.90;;;;;;5077120;28;20510;-51
2022/02/15 06:07:40;;;;;;;17.93;12.33;;;6.00;99.90;;;;;;5077690;28;20468;-53
2022/02/15 06:10:08;;;;;;;17.23;12.43;;;6.00;99.90;;;;;;5077431;28;20826;-56
2022/02/15 06:12:35;;;;;;;17.70;12.17;;;6.00;99.90;;;;;;5076695;28;20457;-57
2022/02/15 06:15:02;;;;;;;18.00;12.40;;;6.00;99.90;;;;;;5077768;28;20527;-55
2022/02/15 06:17:31;;;;;;;21.70;13.30;;;6.00;99.90;;;;;;5074896;28;20828;-55
2022/02/15 06:20:00;;;;;;;20.30;14.90;;;6.00;1.00;;;;;;5075858;28;20537;-56
2022/02/15 06:22:27;;;;;;;19.53;13.23;;;6.00;19.40;;;;;;5075590;28;20462;-54
2022/02/15 06:24:54;;;;;;;18.90;13.80;;;6.00;99.90;;;;;;5075894;28;20507;-56
2022/02/15 06:27:22;;;;;;;24.57;14.60;;;5.90;99.90;;;;;;5077920;28;20457;-57
2022/02/15 06:29:49;;;;;;;17.93;12.87;;;5.90;99.90;;;;;;5077280;28;20929;-57
2022/02/15 06:32:16;;;;;;;26.07;15.60;;;5.90;99.90;;;;;;5077461;28;20775;-55
2022/02/15 06:34:43;;;;;;;19.30;14.00;;;5.90;99.90;;;;;;5077348;28;20973;-57
2022/02/15 06:37:14;;;;;;;19.03;13.27;;;6.00;99.90;;;;;;5078807;28;20457;-55
2022/02/15 06:39:41;;;;;;;22.40;14.90;;;5.90;99.90;;;;;;5074500;28;20503;-57
2022/02/15 06:42:09;;;;;;;20.97;14.73;;;5.90;99.90;;;;;;5076532;28;20753;-53
2022/02/15 06:44:36;;;;;;;20.13;14.70;;;6.00;99.90;;;;;;5076382;28;20453;-55
2022/02/15 06:47:04;;;;;;;19.83;15.63;;;5.90;99.90;;;;;;5075778;28;20898;-56
2022/02/15 06:49:31;;;;;;;24.63;16.60;;;6.00;99.90;;;;;;5075582;28;20485;-57
2022/02/15 06:51:58;;;;;;;23.83;17.53;;;6.00;1.00;;;;;;5075781;28;20449;-52
2022/02/15 06:54:27;;;;;;;27.07;15.80;;;6.00;1.00;;;;;;5076851;28;20457;-51
2022/02/15 06:56:54;;;;;;;21.00;16.87;;;5.90;1.00;;;;;;5076015;28;20493;-53
2022/02/15 06:59:21;;;;;;;22.17;17.17;;;5.90;26.30;;;;;;5077048;28;20468;-58
2022/02/15 07:01:48;;;;;;;18.33;15.17;;;6.00;95.30;;;;;;5077481;28;20687;-55
2022/02/15 07:04:16;;;;;;;25.83;16.87;;;6.00;99.90;;;;;;5075573;28;20542;-58
2022/02/15 07:06:43;;;;;;;25.00;14.73;;;6.00;1.00;;;;;;5075666;28;20467;-58
2022/02/15 07:09:10;;;;;;;16.23;13.53;;;6.00;1.00;;;;;;5075319;28;20471;-56
2022/02/15 07:11:38;;;;;;;19.63;14.57;;;6.00;1.00;;;;;;5075372;28;20462;-54
2022/02/15 07:14:06;;;;;;;16.27;13.50;;;5.90;99.90;;;;;;5076157;28;20518;-55
2022/02/15 07:16:34;;;;;;;26.67;14.20;;;5.80;1.00;;;;;;5075952;28;20495;-55
2022/02/15 07:19:02;;;;;;;16.23;14.50;;;5.80;67.30;;;;;;5074912;28;20461;-55
2022/02/15 07:21:30;;;;;;;21.60;15.67;;;5.80;1.00;;;;;;5076149;28;20510;-56
2022/02/15 07:23:58;;;;;;;26.33;17.07;;;5.80;1.00;;;;;;5077370;28;20471;-58
2022/02/15 07:26:25;;;;;;;23.90;17.10;;;5.90;1.00;;;;;;5077787;28;20468;-58
2022/02/15 07:28:55;;;;;;;28.90;18.47;;;5.90;1.00;;;;;;5076972;28;20898;-58
2022/02/15 07:31:25;;;;;;;21.00;16.43;;;5.90;1.00;;;;;;5076394;28;20481;-56
2022/02/15 07:33:52;;;;;;;26.93;19.20;;;5.80;99.90;;;;;;5077646;28;20453;-56
2022/02/15 07:36:19;;;;;;;21.00;16.70;;;5.90;99.90;;;;;;5077368;28;20454;-53
2022/02/15 07:38:47;;;;;;;25.10;18.40;;;5.90;99.90;;;;;;5074230;28;20531;-56
2022/02/15 07:41:15;;;;;;;23.07;16.53;;;5.90;1.00;;;;;;5077044;28;20454;-55
2022/02/15 07:43:43;;;;;;;21.40;17.23;;;5.90;1.00;;;;;;5077235;28;20511;-54
2022/02/15 07:46:12;;;;;;;26.10;18.10;;;5.90;3.30;;;;;;5077173;28;20460;-54
2022/02/15 07:48:39;;;;;;;22.27;17.20;;;5.90;99.90;;;;;;5076207;28;20462;-51
2022/02/15 07:51:06;;;;;;;27.80;19.97;;;6.10;19.20;;;;;;5071178;28;20489;-57
2022/02/15 07:53:33;;;;;;;22.20;16.97;;;6.10;1.00;;;;;;5077314;28;20518;-59
2022/02/15 07:56:00;;;;;;;27.90;17.13;;;6.10;9.60;;;;;;5077319;28;20491;-59
2022/02/15 07:58:27;;;;;;;29.63;21.40;;;6.00;99.90;;;;;;5073933;28;20938;-60
2022/02/15 08:00:54;;;;;;;26.47;17.17;;;5.90;1.00;;;;;;5076858;28;20510;-60
2022/02/15 08:03:23;;;;;;;27.30;17.30;;;6.00;99.90;;;;;;5076467;28;20460;-59
2022/02/15 08:05:50;;;;;;;26.80;17.67;;;5.90;99.90;;;;;;5077078;28;20829;-60
2022/02/15 08:08:17;;;;;;;28.17;17.53;;;5.90;1.00;;;;;;5077483;28;20465;-58
2022/02/15 08:10:45;;;;;;;22.80;15.27;;;6.00;99.90;;;;;;5076150;28;20493;-60
2022/02/15 08:13:18;;;;;;;27.63;16.70;;;5.90;1.00;;;;;;5077233;28;20481;-54
2022/02/15 08:15:46;;;;;;;23.20;17.47;;;5.90;99.90;;;;;;5077451;28;20465;-60
2022/02/15 08:18:13;;;;;;;23.30;16.40;;;6.00;1.00;;;;;;5077471;28;20468;-56
2022/02/15 08:20:44;;;;;;;24.90;15.33;;;6.00;99.90;;;;;;5076380;28;20457;-54
2022/02/15 08:23:12;;;;;;;22.47;16.23;;;6.00;54.70;;;;;;5076954;28;20908;-57
2022/02/15 08:25:45;;;;;;;20.00;16.27;;;6.00;1.00;;;;;;5076855;28;20515;-55
2022/02/15 08:28:13;;;;;;;19.77;15.07;;;6.10;1.00;;;;;;5077704;28;20464;-60
2022/02/15 08:30:40;;;;;;;25.53;17.60;;;6.10;99.90;;;;;;5076795;28;20527;-54
2022/02/15 08:33:07;;;;;;;22.50;16.70;;;6.10;99.90;;;;;;5076659;28;20465;-57
2022/02/15 08:35:35;;;;;;;26.50;15.27;;;6.10;1.00;;;;;;5077721;28;20465;-60
2022/02/15 08:38:04;;;;;;;18.47;15.13;;;6.10;1.00;;;;;;5077190;28;20461;-58
2022/02/15 08:40:31;;;;;;;22.97;16.80;;;6.10;1.00;;;;;;5077336;28;20457;-57
2022/02/15 08:42:58;;;;;;;24.63;17.20;;;6.20;1.00;;;;;;5075623;28;20563;-59
2022/02/15 08:45:26;;;;;;;31.30;16.67;;;6.20;1.00;;;;;;5076989;28;20461;-57
2022/02/15 08:47:53;;;;;;;22.90;16.67;;;6.20;99.90;;;;;;5075725;28;20912;-58
2022/02/15 08:50:20;;;;;;;21.00;17.53;;;6.10;99.90;;;;;;5075294;28;20606;-55
2022/02/15 08:52:48;;;;;;;27.97;16.93;;;6.10;99.90;;;;;;5074861;28;20495;-57
2022/02/15 08:55:17;;;;;;;21.40;16.40;;;6.20;99.90;;;;;;5074517;28;20465;-57
2022/02/15 08:57:44;;;;;;;25.70;17.47;;;6.20;80.80;;;;;;5074779;28;20486;-57
2022/02/15 09:00:14;;;;;;;24.77;16.20;;;6.20;99.90;;;;;;5076789;28;20564;-59
2022/02/15 09:02:43;;;;;;;23.53;15.97;;;6.20;49.00;;;;;;5076253;28;20770;-60
2022/02/15 09:05:10;;;;;;;28.83;18.47;;;6.20;1.00;;;;;;5075801;28;20736;-58
2022/02/15 09:07:38;;;;;;;19.60;15.63;;;6.20;1.00;;;;;;5075049;28;20518;-54
2022/02/15 09:10:06;;;;;;;26.10;17.77;;;6.30;99.90;;;;;;5074693;28;20527;-60
2022/02/15 09:12:35;;;;;;;22.60;15.83;;;6.30;99.90;;;;;;5076680;28;20579;-55
2022/02/15 09:15:02;;;;;;;23.03;17.27;;;6.30;99.90;;;;;;5076229;28;20469;-54
2022/02/15 09:17:36;;;;;;;27.17;19.87;;;6.40;99.90;;;;;;5078442;28;20559;-59
2022/02/15 09:20:04;;;;;;;19.33;16.47;;;6.40;81.20;;;;;;5080868;28;20514;-55
2022/02/15 09:22:31;;;;;;;25.63;18.00;;;6.40;1.00;;;;;;5080908;28;20526;-57
2022/02/15 09:24:58;;;;;;;22.00;17.37;;;6.40;1.00;;;;;;5079581;28;20846;-58
2022/02/15 09:27:26;;;;;;;21.53;17.40;;;6.30;3.90;;;;;;5080388;28;20465;-57
2022/02/15 09:29:55;;;;;;;21.80;15.73;;;6.30;24.20;;;;;;5080520;28;20534;-59
2022/02/15 09:32:22;;;;;;;25.33;18.90;;;6.20;76.40;;;;;;5080539;28;20496;-56
2022/02/15 09:34:49;;;;;;;23.90;17.57;;;6.30;99.90;;;;;;5079799;28;20836;-58
2022/02/15 09:37:16;;;;;;;24.77;18.17;;;6.20;1.00;;;;;;5099150;28;20753;-54
2022/02/15 09:39:44;;;;;;;24.33;17.63;;;6.20;5.30;;;;;;5083511;28;20468;-56
2022/02/15 09:42:12;;;;;;;25.17;17.73;;;6.30;1.00;;;;;;5079637;28;20823;-57
2022/02/15 09:44:40;;;;;;;23.00;18.07;;;6.50;1.00;;;;;;5078732;28;20461;-55
2022/02/15 09:47:13;;;;;;;24.53;17.37;;;6.60;1.00;;;;;;5079802;28;20511;-56
2022/02/15 09:49:51;;;;;;;19.70;16.27;;;6.80;99.90;;;;;;5080131;28;20440;-57
2022/02/15 09:52:20;;;;;;;23.87;15.83;;;6.80;99.90;;;;;;5080047;28;20488;-59
2022/02/15 09:54:50;;;;;;;21.30;15.90;;;6.70;99.90;;;;;;5079334;28;20907;-58
2022/02/15 09:57:18;;;;;;;19.57;16.30;;;6.70;99.90;;;;;;5079413;28;20531;-59
2022/02/15 09:59:46;;;;;;;17.00;14.60;;;6.60;99.90;;;;;;5079693;28;20548;-56
2022/02/15 10:02:16;;;;;;;13.50;12.10;;;6.60;94.90;;;;;;5079927;28;20468;-58
2022/02/15 10:04:43;;;;;;;22.97;12.87;;;6.50;49.40;;;;;;5079283;28;20465;-58
2022/02/15 10:07:12;;;;;;;18.07;13.50;;;6.50;20.30;;;;;;5078646;28;20461;-57
2022/02/15 10:09:41;;;;;;;16.80;12.70;;;6.60;6.80;;;;;;5079649;28;20461;-54
2022/02/15 10:12:10;;;;;;;19.73;12.83;;;6.60;1.00;;;;;;5079449;28;20883;-58
2022/02/15 10:14:38;;;;;;;11.20;10.07;;;6.70;1.00;;;;;;5079451;28;20800;-60
2022/02/15 10:17:08;;;;;;;14.27;10.93;;;6.80;1.00;;;;;;5078722;28;20432;-58
2022/02/15 10:19:37;;;;;;;12.17;10.20;;;6.90;1.00;;;;;;5078898;28;20515;-58
2022/02/15 10:22:09;;;;;;;15.60;10.53;;;7.00;1.00;;;;;;5079880;28;20523;-58
2022/02/15 10:24:42;;;;;;;15.87;11.00;;;7.00;1.00;;;;;;5069729;28;20448;-59
2022/02/15 10:27:17;;;;;;;10.60;9.47;;;7.00;1.00;;;;;;5075889;28;20461;-59
2022/02/15 10:29:46;;;;;;;12.97;9.33;;;7.00;1.00;;;;;;5078271;28;20457;-58
2022/02/15 10:32:20;;;;;;;14.07;11.00;;;7.00;1.00;;;;;;5075971;28;20489;-58
2022/02/15 10:34:51;;;;;;;11.13;9.90;;;7.10;1.00;;;;;;5067961;28;20871;-57
2022/02/15 10:37:18;;;;;;;17.50;10.30;;;7.10;1.00;;;;;;5078727;28;20465;-58
2022/02/15 10:39:50;;;;;;;14.67;11.17;;;7.10;1.00;;;;;;5079209;28;20833;-55
2022/02/15 10:42:21;;;;;;;14.93;10.53;;;7.00;1.00;;;;;;5076637;28;20479;-59
2022/02/15 10:44:58;;;;;;;14.13;9.37;;;7.00;1.00;;;;;;5078546;28;20465;-59
2022/02/15 10:47:27;;;;;;;14.80;11.60;;;7.00;1.00;;;;;;5077832;28;20472;-59
2022/02/15 10:49:58;;;;;;;18.23;10.97;;;6.90;1.00;;;;;;5077353;28;20912;-59
2022/02/15 10:52:28;;;;;;;18.67;12.40;;;6.90;1.00;;;;;;5076667;28;20493;-58
2022/02/15 10:54:56;;;;;;;13.47;10.80;;;6.90;1.00;;;;;;5077019;28;20553;-53
2022/02/15 10:57:24;;;;;;;15.70;11.50;;;6.90;1.00;;;;;;5074088;28;20489;-57
2022/02/15 10:59:55;;;;;;;14.47;11.37;;;6.80;1.00;;;;;;5077279;28;20461;-57
2022/02/15 11:02:25;;;;;;;15.67;11.77;;;6.80;1.00;;;;;;5078244;28;20456;-59
2022/02/15 11:04:53;;;;;;;18.23;11.50;;;6.80;1.00;;;;;;5079312;28;20816;-58
2022/02/15 11:07:24;;;;;;;13.50;12.10;;;6.70;1.00;;;;;;5078756;28;20468;-60
2022/02/15 11:10:09;;;;;;;18.50;12.97;;;6.60;1.00;;;;;;5077467;28;20466;-59
2022/02/15 11:12:45;;;;;;;21.43;13.60;;;6.40;1.00;;;;;;5067122;28;20794;-59
2022/02/15 11:15:19;;;;;;;15.67;12.70;;;6.30;42.30;;;;;;5079147;28;20464;-60
2022/02/15 11:17:51;;;;;;;16.23;13.47;;;6.30;99.90;;;;;;5079010;28;20461;-63
2022/02/15 11:20:20;;;;;;;17.20;13.70;;;6.40;99.90;;;;;;5078079;28;20431;-61
2022/02/15 11:22:52;;;;;;;16.13;13.10;;;6.50;99.90;;;;;;5078078;28;20732;-61
2022/02/15 11:25:29;;;;;;;16.87;13.87;;;6.60;99.90;;;;;;5078320;28;20475;-63
2022/02/15 11:27:56;;;;;;;16.77;13.00;;;6.60;59.20;;;;;;5077874;28;20898;-63
2022/02/15 11:30:28;;;;;;;20.60;13.57;;;6.60;10.20;;;;;;5077496;28;20469;-63
2022/02/15 11:32:55;;;;;;;21.60;13.27;;;6.60;1.00;;;;;;5078493;28;20455;-63
2022/02/15 11:35:32;;;;;;;16.43;12.30;;;6.70;1.00;;;;;;5064179;28;20449;-63
2022/02/15 11:38:09;;;;;;;13.70;11.40;;;6.80;1.00;;;;;;5098171;28;20897;-63
2022/02/15 11:40:36;;;;;;;16.60;11.03;;;6.80;1.00;;;;;;5083364;28;20547;-63
2022/02/15 11:43:05;;;;;;;14.40;11.40;;;6.90;1.00;;;;;;5077626;28;20460;-63
2022/02/15 11:45:38;;;;;;;12.03;9.30;;;7.00;1.00;;;;;;5077449;28;20507;-63
2022/02/15 11:48:07;;;;;;;15.23;9.20;;;7.20;1.00;;;;;;5077677;28;20464;-63
2022/02/15 11:50:43;;;;;;;14.97;8.87;;;7.70;1.00;;;;;;5077143;28;20526;-63
2022/02/15 11:53:12;;;;;;;11.67;8.70;;;8.00;1.00;;;;;;5077257;28;20461;-63
2022/02/15 11:55:42;;;;;;;10.73;8.50;;;8.00;1.00;;;;;;5076484;28;20460;-63
2022/02/15 11:58:10;;;;;;;11.50;8.10;;;7.80;1.00;;;;;;5077000;28;20547;-60
2022/02/15 12:00:39;;;;;;;7.10;6.40;;;7.60;1.00;;;;;;5076898;28;20757;-61
2022/02/15 12:03:07;;;;;;;9.80;7.00;;;7.40;1.00;;;;;;5077589;28;20461;-61
2022/02/15 12:05:42;;;;;;;10.67;6.70;;;7.40;1.00;;;;;;5076897;28;20816;-62
2022/02/15 12:08:22;;;;;;;9.27;6.63;;;7.40;1.00;;;;;;5076834;28;20764;-60
2022/02/15 12:10:51;;;;;;;6.67;5.63;;;7.30;1.00;;;;;;5076699;28;20578;-60
2022/02/15 12:13:21;;;;;;;8.63;6.37;;;7.30;1.00;;;;;;5077697;28;20465;-62
2022/02/15 12:15:49;;;;;;;7.33;5.03;;;7.20;1.00;;;;;;5076876;28;20465;-63
2022/02/15 12:18:28;;;;;;;6.80;5.20;;;7.30;1.00;;;;;;5077079;28;20511;-63
2022/02/15 12:21:00;;;;;;;8.00;4.80;;;7.30;1.00;;;;;;5077259;28;20491;-63
2022/02/15 12:23:29;;;;;;;6.37;4.83;;;7.40;1.00;;;;;;5066852;28;20469;-60
2022/02/15 12:25:56;;;;;;;6.27;4.87;;;7.50;1.00;;;;;;5076678;28;20468;-61
2022/02/15 12:28:24;;;;;;;6.23;4.33;;;8.10;1.00;;;;;;5076380;28;20515;-64
2022/02/15 12:30:51;;;;;;;6.77;3.93;;;8.80;1.00;;;;;;5077088;28;20522;-64
2022/02/15 12:33:21;;;;;;;7.07;4.53;;;8.60;1.00;;;;;;5077110;28;20465;-64
2022/02/15 12:35:55;;;;;;;5.47;4.43;;;8.30;1.00;;;;;;5076339;28;20469;-64
2022/02/15 12:38:23;;;;;;;6.03;4.67;;;7.90;1.00;;;;;;5076902;28;20563;-63
2022/02/15 12:40:51;;;;;;;6.43;4.87;;;7.60;1.00;;;;;;5072274;28;20968;-60
2022/02/15 12:43:29;;;;;;;6.23;4.40;;;7.50;1.00;;;;;;5056883;28;20470;-63
2022/02/15 12:45:56;;;;;;;8.87;4.90;;;7.50;1.00;;;;;;5056766;28;20970;-63
2022/02/15 12:48:23;;;;;;;7.90;5.00;;;7.60;1.00;;;;;;5074405;28;20480;-62
2022/02/15 12:50:50;;;;;;;11.70;4.90;;;7.70;1.00;;;;;;5076657;28;20465;-63
2022/02/15 12:53:17;;;;;;;9.13;4.90;;;7.90;1.00;;;;;;5080735;28;20428;-63
2022/02/15 12:55:53;;;;;;;8.63;4.57;;;8.10;99.90;;;;;;5081018;28;20530;-61
2022/02/15 12:58:22;;;;;;;5.23;4.70;;;7.90;99.90;;;;;;5079491;28;20488;-61
2022/02/15 13:00:52;;;;;;;7.10;5.00;;;8.40;99.90;;;;;;5072091;28;20480;-61